Accueil
METAR-TAF:

METAR-TAF

Aéroports :

Aéroport de Gênes-Christophe Colomb

Gênes, Italie

latitude: 44-25N, longitude: 008-51E, altitude: 2 m

Observation

Le bulletin a été fait il y a 35 minutes, à 04:20 UTC
Vent 7 kt de nord/nord-est, variant entre nord et est/nord-est
Température 7°C
Humidité 49%
Pression 1009 hPa
Visibilité 10 km ou plus
pas de nuages en-dessous de 1500 mètres et pas de cumulonimbus.

METAR: LIMJ 190420Z 03007KT 360V060 CAVOK 07/M03 Q1009

Heure: 05:55 (04:55 UTC)

Prévision

Le bulletin a été fait il y a 5 heures et 55 minutes, à 23:00 UTC
Prévision valable du 19 à 00 UTC au 19 à 24 UTC
Vent 10 kt de nord-est
Visibilité 10 km ou plus
pas de nuages en-dessous de 1500 mètres et pas de cumulonimbus.

TAF: LIMJ 182300Z 1900/1924 04010KT CAVOK

Observations et prévisions météorologiques de plus de 4000 aéroports (messages METAR et TAF).

Les stations disponibles sont représentées par des disques jaunes et rouges sur la carte.

Passer la souris dessus pour voir le nom de la station.

Cliquer dessus pour voir les observations et prévisions météorologiques.

Pour changer de carte: cliquez sur les boutons verts avec une croix noire pour zoomer, sur le bouton vert avec un tiret pour effectuer un zoom arrière, ou sur les flèches vertes pour les cartes adjacentes.


METAR-TAF: